EZY2925 EGGD-EHAM
Flight info
| Callsign | EZY2925 |
|---|---|
| Flight time | N/A |
| Altitude | 35000 |
| Route | EGGD/09 N0445F350 YORQ1Z YORQI L607 ALHAD P72 IPRIL M197 REDFA REDF1A EHAM/27 |
| Aircraft | A320/M-GEZOA/L |
Departure
| Time | 2026-05-03 23:02 |
|---|---|
| Airport | Bristol Airport (EGGD) |
Arrival
| Time | N/A |
|---|---|
| Airport | Amsterdam Airport Schiphol (EHAM) |
| Time | Latitude | Longitude | Altitude | Speed | Heading |
|---|---|---|---|---|---|
| 2026-05-03 22:45 | 51.38555 | -2.71403 | 614 ft | 0 kts | 355° |
| 2026-05-03 22:53 | 51.38554 | -2.71403 | 628 ft | 2 kts | 355° |
| 2026-05-03 22:53 | 51.38527 | -2.71398 | 625 ft | 4 kts | 349° |
| 2026-05-03 22:53 | 51.38503 | -2.71388 | 622 ft | 4 kts | 327° |
| 2026-05-03 22:54 | 51.38490 | -2.71363 | 621 ft | 1 kts | 267° |
| 2026-05-03 22:54 | 51.38490 | -2.71362 | 620 ft | 2 kts | 267° |
| 2026-05-03 22:57 | 51.38487 | -2.71370 | 623 ft | 3 kts | 240° |
| 2026-05-03 22:58 | 51.38454 | -2.71419 | 621 ft | 9 kts | 239° |
| 2026-05-03 22:58 | 51.38440 | -2.71581 | 617 ft | 19 kts | 266° |
| 2026-05-03 22:58 | 51.38431 | -2.71839 | 617 ft | 28 kts | 268° |
| 2026-05-03 22:58 | 51.38425 | -2.72171 | 631 ft | 31 kts | 266° |
| 2026-05-03 22:59 | 51.38411 | -2.72525 | 624 ft | 30 kts | 266° |
| 2026-05-03 22:59 | 51.38398 | -2.72846 | 619 ft | 26 kts | 266° |
| 2026-05-03 22:59 | 51.38389 | -2.73096 | 621 ft | 17 kts | 266° |
| 2026-05-03 22:59 | 51.38384 | -2.73211 | 622 ft | 16 kts | 264° |
| 2026-05-03 23:00 | 51.38326 | -2.73342 | 625 ft | 12 kts | 194° |
| 2026-05-03 23:00 | 51.38251 | -2.73342 | 630 ft | 10 kts | 177° |
| 2026-05-03 23:00 | 51.38213 | -2.73306 | 633 ft | 5 kts | 104° |
| 2026-05-03 23:00 | 51.38213 | -2.73279 | 625 ft | 0 kts | 86° |
| 2026-05-03 23:01 | 51.38219 | -2.73146 | 630 ft | 44 kts | 86° |
| 2026-05-03 23:02 | 51.38261 | -2.72042 | 631 ft | 140 kts | 87° |
| 2026-05-03 23:02 | 51.38330 | -2.70278 | 1135 ft | 170 kts | 87° |
| 2026-05-03 23:02 | 51.38398 | -2.68350 | 2188 ft | 172 kts | 86° |
| 2026-05-03 23:02 | 51.38462 | -2.66366 | 2753 ft | 187 kts | 87° |
| 2026-05-03 23:03 | 51.38525 | -2.64178 | 3234 ft | 204 kts | 88° |
| 2026-05-03 23:03 | 51.38599 | -2.61651 | 3656 ft | 230 kts | 87° |
| 2026-05-03 23:03 | 51.38684 | -2.59092 | 4183 ft | 252 kts | 87° |
| 2026-05-03 23:03 | 51.38950 | -2.56189 | 4850 ft | 271 kts | 70° |
| 2026-05-03 23:04 | 51.40035 | -2.53730 | 5687 ft | 280 kts | 40° |
| 2026-05-03 23:04 | 51.41663 | -2.51950 | 6600 ft | 285 kts | 29° |
| 2026-05-03 23:04 | 51.43482 | -2.50440 | 7549 ft | 290 kts | 24° |
| 2026-05-03 23:04 | 51.45230 | -2.49104 | 8439 ft | 295 kts | 25° |
| 2026-05-03 23:05 | 51.47120 | -2.47522 | 9378 ft | 302 kts | 30° |
| 2026-05-03 23:05 | 51.48700 | -2.45392 | 10199 ft | 309 kts | 51° |
| 2026-05-03 23:05 | 51.49738 | -2.42239 | 10549 ft | 331 kts | 78° |
| 2026-05-03 23:05 | 51.49964 | -2.38473 | 10882 ft | 350 kts | 91° |
| 2026-05-03 23:06 | 51.50029 | -2.34519 | 11554 ft | 358 kts | 91° |
| 2026-05-03 23:06 | 51.50090 | -2.30581 | 12329 ft | 363 kts | 91° |
| 2026-05-03 23:06 | 51.50158 | -2.26500 | 13130 ft | 368 kts | 91° |
| 2026-05-03 23:06 | 51.50233 | -2.22361 | 13904 ft | 373 kts | 91° |
| 2026-05-03 23:07 | 51.50314 | -2.18180 | 14625 ft | 377 kts | 91° |
| 2026-05-03 23:07 | 51.50216 | -2.13920 | 15345 ft | 377 kts | 100° |
| 2026-05-03 23:07 | 51.49935 | -2.09790 | 16077 ft | 380 kts | 100° |
| 2026-05-03 23:07 | 51.49637 | -2.05549 | 16805 ft | 383 kts | 101° |
| 2026-05-03 23:08 | 51.49333 | -2.01291 | 17528 ft | 387 kts | 101° |
| 2026-05-03 23:08 | 51.49022 | -1.96969 | 18248 ft | 390 kts | 101° |
| 2026-05-03 23:08 | 51.48707 | -1.92627 | 18848 ft | 393 kts | 101° |
| 2026-05-03 23:08 | 51.48391 | -1.88244 | 19447 ft | 396 kts | 101° |
| 2026-05-03 23:09 | 51.48071 | -1.83831 | 20037 ft | 400 kts | 101° |
| 2026-05-03 23:09 | 51.47747 | -1.79378 | 20616 ft | 403 kts | 101° |
| 2026-05-03 23:09 | 51.47418 | -1.74901 | 21199 ft | 406 kts | 101° |
| 2026-05-03 23:09 | 51.47090 | -1.70431 | 21758 ft | 409 kts | 101° |
| 2026-05-03 23:10 | 51.46660 | -1.65920 | 22303 ft | 409 kts | 107° |
| 2026-05-03 23:10 | 51.46055 | -1.61435 | 22840 ft | 413 kts | 107° |
| 2026-05-03 23:10 | 51.45442 | -1.56918 | 23386 ft | 416 kts | 107° |
| 2026-05-03 23:10 | 51.44818 | -1.52356 | 23871 ft | 419 kts | 107° |
| 2026-05-03 23:11 | 51.44177 | -1.47720 | 24309 ft | 421 kts | 107° |
| 2026-05-03 23:11 | 51.43540 | -1.43115 | 24763 ft | 424 kts | 108° |
| 2026-05-03 23:11 | 51.42906 | -1.38521 | 25186 ft | 426 kts | 108° |
| 2026-05-03 23:11 | 51.42259 | -1.33846 | 25628 ft | 429 kts | 108° |
| 2026-05-03 23:12 | 51.41609 | -1.29160 | 26059 ft | 431 kts | 108° |
| 2026-05-03 23:12 | 51.40955 | -1.24406 | 26496 ft | 434 kts | 108° |
| 2026-05-03 23:12 | 51.40586 | -1.19543 | 26913 ft | 445 kts | 98° |
| 2026-05-03 23:12 | 51.40744 | -1.14573 | 27337 ft | 456 kts | 88° |
| 2026-05-03 23:13 | 51.41468 | -1.09571 | 27723 ft | 467 kts | 77° |
| 2026-05-03 23:13 | 51.42785 | -1.04640 | 28096 ft | 476 kts | 69° |
| 2026-05-03 23:13 | 51.44240 | -0.99921 | 28457 ft | 479 kts | 69° |
| 2026-05-03 23:13 | 51.45818 | -0.94776 | 28830 ft | 482 kts | 69° |
| 2026-05-03 23:14 | 51.47222 | -0.90173 | 29155 ft | 485 kts | 69° |
| 2026-05-03 23:14 | 51.48836 | -0.84860 | 29518 ft | 488 kts | 69° |
| 2026-05-03 23:14 | 51.50245 | -0.80211 | 29812 ft | 491 kts | 70° |
| 2026-05-03 23:14 | 51.51725 | -0.75319 | 30110 ft | 494 kts | 69° |
| 2026-05-03 23:15 | 51.53202 | -0.70426 | 30381 ft | 497 kts | 69° |
| 2026-05-03 23:15 | 51.54714 | -0.65410 | 30660 ft | 499 kts | 69° |
| 2026-05-03 23:15 | 51.56282 | -0.60198 | 31061 ft | 498 kts | 69° |
| 2026-05-03 23:15 | 51.57785 | -0.55195 | 31471 ft | 497 kts | 69° |
| 2026-05-03 23:16 | 51.59290 | -0.50176 | 31884 ft | 496 kts | 69° |
| 2026-05-03 23:16 | 51.60286 | -0.46842 | 32161 ft | 495 kts | 69° |
| 2026-05-03 23:16 | 51.61823 | -0.41685 | 32610 ft | 494 kts | 69° |
| 2026-05-03 23:16 | 51.63312 | -0.36678 | 33068 ft | 492 kts | 68° |
| 2026-05-03 23:17 | 51.64791 | -0.31699 | 33547 ft | 490 kts | 68° |
| 2026-05-03 23:17 | 51.66428 | -0.26179 | 34042 ft | 488 kts | 68° |
| 2026-05-03 23:17 | 51.67734 | -0.21782 | 34377 ft | 486 kts | 68° |
| 2026-05-03 23:17 | 51.69079 | -0.16844 | 34698 ft | 484 kts | 73° |
| 2026-05-03 23:18 | 51.70111 | -0.11896 | 34979 ft | 480 kts | 77° |
| 2026-05-03 23:18 | 51.71482 | -0.01193 | 34956 ft | 454 kts | 87° |
| 2026-05-03 23:18 | 51.71915 | 0.03822 | 34952 ft | 439 kts | 88° |
| 2026-05-03 23:19 | 51.72395 | 0.08990 | 34827 ft | 428 kts | 86° |
| 2026-05-03 23:19 | 51.72847 | 0.13358 | 34348 ft | 417 kts | 83° |
| 2026-05-03 23:19 | 51.73488 | 0.17913 | 33622 ft | 404 kts | 80° |
| 2026-05-03 23:19 | 51.74256 | 0.22171 | 32575 ft | 392 kts | 51° |
| 2026-05-03 23:20 | 51.75314 | 0.24650 | 27055 ft | 181 kts | 109° |
| 2026-05-03 23:20 | 51.75042 | 0.27763 | 19719 ft | 432 kts | 94° |
| 2026-05-03 23:20 | 51.75770 | 0.32859 | 16799 ft | 410 kts | 107° |
| 2026-05-03 23:20 | 51.76642 | 0.34650 | 12278 ft | 120 kts | 18° |
| 2026-05-03 23:21 | 51.78598 | 0.35044 | 5851 ft | 419 kts | 359° |
| 2026-05-03 23:21 | 51.81400 | 0.34932 | 3950 ft | 383 kts | 353° |
| 2026-05-03 23:21 | 51.83994 | 0.33823 | 2915 ft | 327 kts | 340° |
| 2026-05-03 23:21 | 51.85809 | 0.32804 | 2366 ft | 287 kts | 339° |
| 2026-05-03 23:22 | 51.89109 | 0.30709 | 1410 ft | 224 kts | 325° |
| 2026-05-03 23:22 | 51.89907 | 0.28848 | 1247 ft | 194 kts | 282° |
| 2026-05-03 23:22 | 51.90085 | 0.27448 | 996 ft | 190 kts | 277° |
| 2026-05-03 23:23 | 51.89477 | 0.24983 | 399 ft | 186 kts | 223° |
| 2026-05-03 23:23 | 51.88846 | 0.24005 | 338 ft | 139 kts | 224° |
| 2026-05-03 23:23 | 51.88493 | 0.23459 | 335 ft | 0 kts | 223° |